Kansas City North, Missouri
Current Conditions -  °F | °C
As of 2:54 PM on Tuesday 21 Oct 2014 (Local Time) from KMKC Reporting Station
Clear Clear  
Wind Chill: 75°   Ceiling: Unl
Heat Index: 75°   Visibility: 10mi
Dew Point: 44°   Wind: 3mph
Humidity: 33%   Direction: NA
Pressure: 30.08"   Gusts: NA
Location:  39.1657°N, 94.5231°W
Report Text: KMKC 211954Z VRB03KT 10SM CLR 24/07 A3008 RMK AO2 SLP183 T02390067
Loading
Personal Weather Stations






























Interactive Weather Map
Tropical Storm Tracking
New forecast layout! Learn more

10-Day Weather Forecast

Advertisements
Track Severe Weather on mobile